sensor_id;sensor_type;location;lat;lon;timestamp;pressure;altitude;pressure_sealevel;temperature;humidity
74895;BME280;63447;49.446;8.666;2022-10-31T00:00:30;100852.63;;;13.49;78.10
74895;BME280;63447;49.446;8.666;2022-10-31T00:02:55;100852.09;;;13.35;79.49
74895;BME280;63447;49.446;8.666;2022-10-31T00:05:21;100846.69;;;13.38;79.60
74895;BME280;63447;49.446;8.666;2022-10-31T00:07:46;100834.03;;;13.29;79.45
74895;BME280;63447;49.446;8.666;2022-10-31T00:10:14;100846.06;;;13.33;80.27
74895;BME280;63447;49.446;8.666;2022-10-31T00:12:42;100832.88;;;13.30;80.01
74895;BME280;63447;49.446;8.666;2022-10-31T00:15:07;100840.81;;;13.40;79.79
74895;BME280;63447;49.446;8.666;2022-10-31T00:17:35;100806.09;;;13.13;79.64
74895;BME280;63447;49.446;8.666;2022-10-31T00:20:01;100844.72;;;13.39;79.95
74895;BME280;63447;49.446;8.666;2022-10-31T00:22:26;100845.66;;;13.43;79.23
74895;BME280;63447;49.446;8.666;2022-10-31T00:24:54;100809.44;;;13.27;78.70
74895;BME280;63447;49.446;8.666;2022-10-31T00:27:19;100849.06;;;13.48;78.04
74895;BME280;63447;49.446;8.666;2022-10-31T00:29:49;100843.84;;;13.47;78.17
74895;BME280;63447;49.446;8.666;2022-10-31T00:32:14;100815.91;;;13.31;78.69
74895;BME280;63447;49.446;8.666;2022-10-31T00:34:40;100848.78;;;13.41;78.51
74895;BME280;63447;49.446;8.666;2022-10-31T00:37:05;100817.63;;;13.23;79.07
74895;BME280;63447;49.446;8.666;2022-10-31T00:39:30;100848.91;;;13.45;78.17
74895;BME280;63447;49.446;8.666;2022-10-31T00:41:58;100846.81;;;13.42;78.13
74895;BME280;63447;49.446;8.666;2022-10-31T00:44:23;100844.03;;;13.42;78.26
74895;BME280;63447;49.446;8.666;2022-10-31T00:46:48;100853.66;;;13.44;78.37
74895;BME280;63447;49.446;8.666;2022-10-31T00:49:13;100840.53;;;13.33;79.17
74895;BME280;63447;49.446;8.666;2022-10-31T00:51:39;100849.72;;;13.45;78.22
74895;BME280;63447;49.446;8.666;2022-10-31T00:54:04;100851.75;;;13.36;77.98
74895;BME280;63447;49.446;8.666;2022-10-31T00:56:29;100850.81;;;13.32;77.85
74895;BME280;63447;49.446;8.666;2022-10-31T00:58:55;100844.53;;;13.23;78.00
74895;BME280;63447;49.446;8.666;2022-10-31T01:01:23;100856.78;;;13.22;78.37
74895;BME280;63447;49.446;8.666;2022-10-31T01:03:50;100853.06;;;13.18;78.19
74895;BME280;63447;49.446;8.666;2022-10-31T01:06:16;100852.41;;;13.12;78.81
74895;BME280;63447;49.446;8.666;2022-10-31T01:08:41;100839.41;;;13.04;78.67
74895;BME280;63447;49.446;8.666;2022-10-31T01:11:11;100852.25;;;13.09;79.07
74895;BME280;63447;49.446;8.666;2022-10-31T01:13:39;100857.94;;;13.12;78.54
74895;BME280;63447;49.446;8.666;2022-10-31T01:16:06;100851.63;;;13.03;78.74
74895;BME280;63447;49.446;8.666;2022-10-31T01:18:32;100862.94;;;12.98;78.38
74895;BME280;63447;49.446;8.666;2022-10-31T01:21:04;100860.03;;;12.95;78.53
74895;BME280;63447;49.446;8.666;2022-10-31T01:23:30;100863.47;;;12.91;78.43
74895;BME280;63447;49.446;8.666;2022-10-31T01:26:01;100863.19;;;12.84;79.18
74895;BME280;63447;49.446;8.666;2022-10-31T01:28:26;100872.94;;;12.90;79.03
74895;BME280;63447;49.446;8.666;2022-10-31T01:30:52;100865.13;;;12.84;78.56
74895;BME280;63447;49.446;8.666;2022-10-31T01:33:17;100851.88;;;12.69;78.41
74895;BME280;63447;49.446;8.666;2022-10-31T01:35:43;100854.34;;;12.62;78.45
74895;BME280;63447;49.446;8.666;2022-10-31T01:38:08;100836.31;;;12.55;78.86
74895;BME280;63447;49.446;8.666;2022-10-31T01:40:33;100859.84;;;12.70;79.07
74895;BME280;63447;49.446;8.666;2022-10-31T01:43:01;100873.56;;;12.67;78.89
74895;BME280;63447;49.446;8.666;2022-10-31T01:45:29;100870.94;;;12.70;78.75
74895;BME280;63447;49.446;8.666;2022-10-31T01:47:56;100856.50;;;12.56;78.95
74895;BME280;63447;49.446;8.666;2022-10-31T01:50:35;100848.03;;;12.52;78.59
74895;BME280;63447;49.446;8.666;2022-10-31T01:53:06;100856.34;;;12.52;79.15
74895;BME280;63447;49.446;8.666;2022-10-31T01:55:35;100866.44;;;12.57;79.26
74895;BME280;63447;49.446;8.666;2022-10-31T01:58:09;100853.75;;;12.47;78.45
74895;BME280;63447;49.446;8.666;2022-10-31T02:00:37;100862.53;;;12.49;79.53
74895;BME280;63447;49.446;8.666;2022-10-31T02:03:05;100855.25;;;12.45;78.81
74895;BME280;63447;49.446;8.666;2022-10-31T02:05:31;100847.44;;;12.47;78.83
74895;BME280;63447;49.446;8.666;2022-10-31T02:08:27;100847.00;;;12.36;79.96
74895;BME280;63447;49.446;8.666;2022-10-31T02:10:54;100856.59;;;12.39;80.56
74895;BME280;63447;49.446;8.666;2022-10-31T02:13:20;100853.19;;;12.33;80.88
74895;BME280;63447;49.446;8.666;2022-10-31T02:15:53;100850.78;;;12.23;83.03
74895;BME280;63447;49.446;8.666;2022-10-31T02:18:20;100838.09;;;12.22;81.87
74895;BME280;63447;49.446;8.666;2022-10-31T02:29:22;100841.16;;;12.29;81.16
74895;BME280;63447;49.446;8.666;2022-10-31T02:32:02;100839.53;;;12.28;80.27
74895;BME280;63447;49.446;8.666;2022-10-31T02:34:42;100828.63;;;12.32;80.33
74895;BME280;63447;49.446;8.666;2022-10-31T02:42:31;100834.78;;;12.37;80.46
74895;BME280;63447;49.446;8.666;2022-10-31T02:45:02;100835.41;;;12.43;80.84
74895;BME280;63447;49.446;8.666;2022-10-31T02:47:36;100838.19;;;12.43;81.14
74895;BME280;63447;49.446;8.666;2022-10-31T02:52:39;100825.34;;;12.38;80.65
74895;BME280;63447;49.446;8.666;2022-10-31T02:55:41;100818.50;;;12.36;80.63
74895;BME280;63447;49.446;8.666;2022-10-31T02:58:17;100818.19;;;12.37;80.91
74895;BME280;63447;49.446;8.666;2022-10-31T03:03:53;100814.25;;;12.38;82.22
74895;BME280;63447;49.446;8.666;2022-10-31T03:11:47;100825.31;;;12.47;80.90
74895;BME280;63447;49.446;8.666;2022-10-31T03:14:23;100810.69;;;12.38;80.75
74895;BME280;63447;49.446;8.666;2022-10-31T03:16:52;100827.78;;;12.40;80.15
74895;BME280;63447;49.446;8.666;2022-10-31T03:21:49;100814.63;;;12.28;79.90
74895;BME280;63447;49.446;8.666;2022-10-31T03:24:20;100838.34;;;12.38;81.13
74895;BME280;63447;49.446;8.666;2022-10-31T03:26:51;100825.06;;;12.22;80.49
74895;BME280;63447;49.446;8.666;2022-10-31T03:29:23;100824.41;;;12.26;80.50
74895;BME280;63447;49.446;8.666;2022-10-31T03:32:06;100827.81;;;12.22;80.67
74895;BME280;63447;49.446;8.666;2022-10-31T03:34:35;100828.31;;;12.24;80.55
74895;BME280;63447;49.446;8.666;2022-10-31T03:37:04;100833.84;;;12.24;79.81
74895;BME280;63447;49.446;8.666;2022-10-31T03:39:32;100832.38;;;12.27;80.28
74895;BME280;63447;49.446;8.666;2022-10-31T03:42:33;100831.56;;;12.27;80.27
74895;BME280;63447;49.446;8.666;2022-10-31T03:45:04;100814.00;;;12.22;80.19
74895;BME280;63447;49.446;8.666;2022-10-31T03:47:31;100827.31;;;12.29;79.55
74895;BME280;63447;49.446;8.666;2022-10-31T03:49:57;100801.53;;;12.08;79.81
74895;BME280;63447;49.446;8.666;2022-10-31T03:53:18;100823.75;;;12.29;79.77
74895;BME280;63447;49.446;8.666;2022-10-31T03:55:48;100812.44;;;12.13;79.31
74895;BME280;63447;49.446;8.666;2022-10-31T03:58:33;100813.41;;;12.08;79.71
74895;BME280;63447;49.446;8.666;2022-10-31T04:01:03;100822.03;;;12.07;79.23
74895;BME280;63447;49.446;8.666;2022-10-31T04:03:33;100820.91;;;11.99;79.61
74895;BME280;63447;49.446;8.666;2022-10-31T04:06:06;100813.00;;;11.89;79.84
74895;BME280;63447;49.446;8.666;2022-10-31T04:08:38;100805.53;;;11.81;80.42
74895;BME280;63447;49.446;8.666;2022-10-31T04:11:05;100817.41;;;11.90;80.01
74895;BME280;63447;49.446;8.666;2022-10-31T04:13:33;100828.13;;;11.92;79.76
74895;BME280;63447;49.446;8.666;2022-10-31T04:16:00;100822.75;;;11.86;79.92
74895;BME280;63447;49.446;8.666;2022-10-31T04:18:26;100820.16;;;11.81;80.61
74895;BME280;63447;49.446;8.666;2022-10-31T04:21:05;100804.91;;;11.67;81.11
74895;BME280;63447;49.446;8.666;2022-10-31T04:23:31;100821.31;;;11.63;81.78
74895;BME280;63447;49.446;8.666;2022-10-31T04:26:00;100823.56;;;11.70;81.17
74895;BME280;63447;49.446;8.666;2022-10-31T04:28:26;100826.81;;;11.72;81.52
74895;BME280;63447;49.446;8.666;2022-10-31T04:30:51;100820.47;;;11.71;81.37
74895;BME280;63447;49.446;8.666;2022-10-31T04:33:17;100825.19;;;11.71;81.41
74895;BME280;63447;49.446;8.666;2022-10-31T04:35:43;100810.28;;;11.63;81.78
74895;BME280;63447;49.446;8.666;2022-10-31T04:38:10;100817.38;;;11.73;81.61
74895;BME280;63447;49.446;8.666;2022-10-31T04:40:38;100802.13;;;11.67;81.49
74895;BME280;63447;49.446;8.666;2022-10-31T04:43:03;100822.44;;;11.71;80.92
74895;BME280;63447;49.446;8.666;2022-10-31T04:45:31;100814.50;;;11.61;81.07
74895;BME280;63447;49.446;8.666;2022-10-31T04:47:58;100820.34;;;11.59;80.87
74895;BME280;63447;49.446;8.666;2022-10-31T04:50:26;100818.94;;;11.36;82.35
74895;BME280;63447;49.446;8.666;2022-10-31T04:52:52;100817.78;;;11.37;82.12
74895;BME280;63447;49.446;8.666;2022-10-31T04:55:19;100814.22;;;11.36;81.40
74895;BME280;63447;49.446;8.666;2022-10-31T04:57:46;100823.47;;;11.40;82.47
74895;BME280;63447;49.446;8.666;2022-10-31T05:00:14;100823.16;;;11.42;81.30
74895;BME280;63447;49.446;8.666;2022-10-31T05:02:55;100821.69;;;11.36;81.53
74895;BME280;63447;49.446;8.666;2022-10-31T05:05:31;100831.75;;;11.40;81.47
74895;BME280;63447;49.446;8.666;2022-10-31T05:07:56;100839.72;;;11.42;81.41
74895;BME280;63447;49.446;8.666;2022-10-31T05:10:24;100841.03;;;11.36;81.55
74895;BME280;63447;49.446;8.666;2022-10-31T05:12:57;100840.88;;;11.32;81.23
74895;BME280;63447;49.446;8.666;2022-10-31T05:15:24;100840.38;;;11.30;81.35
74895;BME280;63447;49.446;8.666;2022-10-31T05:17:51;100831.91;;;11.27;81.39
74895;BME280;63447;49.446;8.666;2022-10-31T05:20:21;100842.81;;;11.32;81.61
74895;BME280;63447;49.446;8.666;2022-10-31T05:22:52;100852.56;;;11.29;81.83
74895;BME280;63447;49.446;8.666;2022-10-31T05:25:18;100838.09;;;11.23;81.87
74895;BME280;63447;49.446;8.666;2022-10-31T05:27:46;100838.91;;;11.33;81.93
74895;BME280;63447;49.446;8.666;2022-10-31T05:30:18;100838.41;;;11.31;81.61
74895;BME280;63447;49.446;8.666;2022-10-31T05:32:48;100844.44;;;11.24;82.00
74895;BME280;63447;49.446;8.666;2022-10-31T05:35:18;100833.53;;;11.28;83.11
74895;BME280;63447;49.446;8.666;2022-10-31T05:37:44;100824.78;;;11.26;82.09
74895;BME280;63447;49.446;8.666;2022-10-31T05:40:11;100828.03;;;11.28;81.97
74895;BME280;63447;49.446;8.666;2022-10-31T05:42:43;100809.81;;;11.27;82.04
74895;BME280;63447;49.446;8.666;2022-10-31T05:45:14;100810.63;;;11.27;81.75
74895;BME280;63447;49.446;8.666;2022-10-31T05:47:40;100796.34;;;11.16;82.48
74895;BME280;63447;49.446;8.666;2022-10-31T05:50:09;100797.63;;;11.19;82.97
74895;BME280;63447;49.446;8.666;2022-10-31T05:52:35;100814.19;;;11.19;81.70
74895;BME280;63447;49.446;8.666;2022-10-31T05:55:01;100818.59;;;11.11;81.80
74895;BME280;63447;49.446;8.666;2022-10-31T05:57:26;100806.72;;;11.02;81.49
74895;BME280;63447;49.446;8.666;2022-10-31T05:59:52;100818.75;;;11.06;82.00
74895;BME280;63447;49.446;8.666;2022-10-31T06:02:19;100817.78;;;11.02;82.18
74895;BME280;63447;49.446;8.666;2022-10-31T06:04:47;100825.09;;;11.07;81.83
74895;BME280;63447;49.446;8.666;2022-10-31T06:07:15;100817.94;;;11.06;81.57
74895;BME280;63447;49.446;8.666;2022-10-31T06:09:43;100817.78;;;11.11;82.19
74895;BME280;63447;49.446;8.666;2022-10-31T06:12:08;100813.72;;;11.08;81.47
74895;BME280;63447;49.446;8.666;2022-10-31T06:14:33;100820.41;;;11.16;81.86
74895;BME280;63447;49.446;8.666;2022-10-31T06:17:01;100813.22;;;11.23;81.72
74895;BME280;63447;49.446;8.666;2022-10-31T06:19:26;100820.22;;;11.21;81.52
74895;BME280;63447;49.446;8.666;2022-10-31T06:21:51;100815.66;;;11.25;81.25
74895;BME280;63447;49.446;8.666;2022-10-31T06:24:21;100807.22;;;11.21;80.84
74895;BME280;63447;49.446;8.666;2022-10-31T06:26:47;100817.28;;;11.26;81.05
74895;BME280;63447;49.446;8.666;2022-10-31T06:29:12;100819.25;;;11.17;81.48
74895;BME280;63447;49.446;8.666;2022-10-31T06:31:45;100832.41;;;11.29;81.17
74895;BME280;63447;49.446;8.666;2022-10-31T06:34:10;100816.63;;;11.20;81.25
74895;BME280;63447;49.446;8.666;2022-10-31T06:36:35;100824.13;;;11.29;81.35
74895;BME280;63447;49.446;8.666;2022-10-31T06:39:01;100812.09;;;11.25;80.83
74895;BME280;63447;49.446;8.666;2022-10-31T06:41:30;100817.63;;;11.42;80.70
74895;BME280;63447;49.446;8.666;2022-10-31T06:44:00;100807.03;;;11.44;80.01
74895;BME280;63447;49.446;8.666;2022-10-31T06:46:28;100819.34;;;11.72;81.06
74895;BME280;63447;49.446;8.666;2022-10-31T06:48:53;100829.25;;;11.91;80.89
74895;BME280;63447;49.446;8.666;2022-10-31T06:51:18;100811.47;;;12.00;79.85
74895;BME280;63447;49.446;8.666;2022-10-31T06:53:44;100820.06;;;12.16;79.33
74895;BME280;63447;49.446;8.666;2022-10-31T06:56:09;100821.69;;;12.17;79.32
74895;BME280;63447;49.446;8.666;2022-10-31T06:58:37;100810.34;;;12.01;80.96
74895;BME280;63447;49.446;8.666;2022-10-31T07:01:02;100819.41;;;12.19;80.58
74895;BME280;63447;49.446;8.666;2022-10-31T07:03:27;100817.13;;;12.21;80.28
74895;BME280;63447;49.446;8.666;2022-10-31T07:05:57;100804.84;;;12.31;79.39
74895;BME280;63447;49.446;8.666;2022-10-31T07:08:23;100798.59;;;12.13;79.75
74895;BME280;63447;49.446;8.666;2022-10-31T07:10:53;100806.78;;;12.39;79.72
74895;BME280;63447;49.446;8.666;2022-10-31T07:13:20;100815.59;;;12.62;80.24
74895;BME280;63447;49.446;8.666;2022-10-31T07:15:54;100806.56;;;12.73;78.76
74895;BME280;63447;49.446;8.666;2022-10-31T07:18:20;100806.50;;;12.82;77.58
74895;BME280;63447;49.446;8.666;2022-10-31T07:20:45;100814.97;;;13.06;76.97
74895;BME280;63447;49.446;8.666;2022-10-31T07:23:11;100813.56;;;13.42;76.51
74895;BME280;63447;49.446;8.666;2022-10-31T07:25:38;100808.75;;;13.96;74.40
74895;BME280;63447;49.446;8.666;2022-10-31T07:28:03;100801.72;;;14.23;73.12
74895;BME280;63447;49.446;8.666;2022-10-31T07:30:31;100816.22;;;14.41;72.08
74895;BME280;63447;49.446;8.666;2022-10-31T07:32:57;100820.34;;;14.35;72.93
74895;BME280;63447;49.446;8.666;2022-10-31T07:35:24;100811.53;;;14.33;72.63
74895;BME280;63447;49.446;8.666;2022-10-31T07:37:52;100821.06;;;14.44;72.38
74895;BME280;63447;49.446;8.666;2022-10-31T07:40:19;100824.78;;;14.48;72.24
74895;BME280;63447;49.446;8.666;2022-10-31T07:42:48;100823.84;;;14.44;72.55
74895;BME280;63447;49.446;8.666;2022-10-31T07:45:16;100817.34;;;14.40;72.44
74895;BME280;63447;49.446;8.666;2022-10-31T07:50:10;100822.69;;;14.69;72.16
74895;BME280;63447;49.446;8.666;2022-10-31T07:52:36;100812.63;;;14.77;72.33
74895;BME280;63447;49.446;8.666;2022-10-31T07:55:02;100843.38;;;14.96;72.31
74895;BME280;63447;49.446;8.666;2022-10-31T07:57:27;100821.78;;;15.17;71.90
74895;BME280;63447;49.446;8.666;2022-10-31T07:59:55;100817.59;;;15.23;71.03
74895;BME280;63447;49.446;8.666;2022-10-31T08:02:24;100835.34;;;15.47;70.73
74895;BME280;63447;49.446;8.666;2022-10-31T08:04:52;100815.66;;;15.40;70.65
74895;BME280;63447;49.446;8.666;2022-10-31T08:07:20;100818.00;;;15.38;70.48
74895;BME280;63447;49.446;8.666;2022-10-31T08:09:45;100806.97;;;15.41;70.81
74895;BME280;63447;49.446;8.666;2022-10-31T08:12:11;100817.09;;;15.61;69.97
74895;BME280;63447;49.446;8.666;2022-10-31T08:14:36;100815.06;;;15.46;70.51
74895;BME280;63447;49.446;8.666;2022-10-31T08:17:02;100812.69;;;14.92;72.73
74895;BME280;63447;49.446;8.666;2022-10-31T08:19:27;100811.47;;;14.53;75.10
74895;BME280;63447;49.446;8.666;2022-10-31T08:21:55;100797.56;;;14.66;74.96
74895;BME280;63447;49.446;8.666;2022-10-31T08:24:21;100816.97;;;14.90;73.98
74895;BME280;63447;49.446;8.666;2022-10-31T08:26:46;100805.06;;;15.30;72.69
74895;BME280;63447;49.446;8.666;2022-10-31T08:29:12;100805.84;;;15.70;71.94
74895;BME280;63447;49.446;8.666;2022-10-31T08:31:38;100797.88;;;16.00;70.51
74895;BME280;63447;49.446;8.666;2022-10-31T08:34:03;100806.53;;;16.11;70.26
74895;BME280;63447;49.446;8.666;2022-10-31T08:36:29;100797.44;;;16.29;70.10
74895;BME280;63447;49.446;8.666;2022-10-31T08:38:54;100798.66;;;16.63;68.83
74895;BME280;63447;49.446;8.666;2022-10-31T08:41:20;100798.88;;;16.90;68.24
74895;BME280;63447;49.446;8.666;2022-10-31T08:43:45;100798.63;;;17.14;67.47
74895;BME280;63447;49.446;8.666;2022-10-31T08:46:11;100796.25;;;17.16;65.54
74895;BME280;63447;49.446;8.666;2022-10-31T08:48:39;100777.13;;;17.15;65.92
74895;BME280;63447;49.446;8.666;2022-10-31T08:51:04;100788.56;;;17.48;65.22
74895;BME280;63447;49.446;8.666;2022-10-31T08:53:33;100773.16;;;17.35;64.35
74895;BME280;63447;49.446;8.666;2022-10-31T08:56:01;100788.94;;;17.27;64.96
74895;BME280;63447;49.446;8.666;2022-10-31T08:58:26;100793.56;;;16.50;67.75
74895;BME280;63447;49.446;8.666;2022-10-31T09:00:53;100796.22;;;16.78;67.55
74895;BME280;63447;49.446;8.666;2022-10-31T09:03:22;100794.16;;;17.10;67.24
74895;BME280;63447;49.446;8.666;2022-10-31T09:05:48;100796.50;;;17.27;66.36
74895;BME280;63447;49.446;8.666;2022-10-31T09:08:16;100797.00;;;17.52;65.77
74895;BME280;63447;49.446;8.666;2022-10-31T09:10:42;100791.41;;;17.71;64.88
74895;BME280;63447;49.446;8.666;2022-10-31T09:13:19;100803.97;;;17.81;64.72
74895;BME280;63447;49.446;8.666;2022-10-31T09:15:49;100799.94;;;17.78;65.23
74895;BME280;63447;49.446;8.666;2022-10-31T09:18:16;100795.16;;;18.02;64.81
74895;BME280;63447;49.446;8.666;2022-10-31T09:20:44;100795.22;;;18.28;64.12
74895;BME280;63447;49.446;8.666;2022-10-31T09:23:14;100792.97;;;18.37;63.31
74895;BME280;63447;49.446;8.666;2022-10-31T09:25:42;100792.22;;;18.40;63.65
74895;BME280;63447;49.446;8.666;2022-10-31T09:28:12;100788.34;;;18.48;63.40
74895;BME280;63447;49.446;8.666;2022-10-31T09:30:40;100792.78;;;18.76;62.39
74895;BME280;63447;49.446;8.666;2022-10-31T09:33:12;100801.56;;;18.74;62.63
74895;BME280;63447;49.446;8.666;2022-10-31T09:35:41;100807.19;;;19.04;62.07
74895;BME280;63447;49.446;8.666;2022-10-31T09:45:55;100800.88;;;19.41;60.07
74895;BME280;63447;49.446;8.666;2022-10-31T09:51:12;100803.56;;;19.63;58.51
74895;BME280;63447;49.446;8.666;2022-10-31T09:53:50;100802.88;;;19.10;59.59
74895;BME280;63447;49.446;8.666;2022-10-31T09:56:19;100779.84;;;19.54;59.14
74895;BME280;63447;49.446;8.666;2022-10-31T09:58:48;100795.16;;;20.01;57.23
74895;BME280;63447;49.446;8.666;2022-10-31T10:06:41;100760.47;;;20.71;55.44
74895;BME280;63447;49.446;8.666;2022-10-31T10:09:10;100775.25;;;21.40;53.62
74895;BME280;63447;49.446;8.666;2022-10-31T10:17:33;100758.56;;;22.40;50.85
74895;BME280;63447;49.446;8.666;2022-10-31T10:20:25;100763.28;;;23.07;49.02
74895;BME280;63447;49.446;8.666;2022-10-31T10:25:33;100759.88;;;24.10;45.13
74895;BME280;63447;49.446;8.666;2022-10-31T10:28:08;100730.88;;;23.57;46.38
74895;BME280;63447;49.446;8.666;2022-10-31T10:30:41;100745.78;;;24.10;45.61
74895;BME280;63447;49.446;8.666;2022-10-31T10:33:15;100747.81;;;24.09;45.89
74895;BME280;63447;49.446;8.666;2022-10-31T10:36:04;100734.75;;;24.29;44.59
74895;BME280;63447;49.446;8.666;2022-10-31T10:38:53;100742.72;;;24.79;44.38
74895;BME280;63447;49.446;8.666;2022-10-31T10:41:20;100744.66;;;25.50;41.86
74895;BME280;63447;49.446;8.666;2022-10-31T10:43:48;100736.97;;;25.81;41.54
74895;BME280;63447;49.446;8.666;2022-10-31T10:46:43;100736.44;;;25.90;40.81
74895;BME280;63447;49.446;8.666;2022-10-31T10:52:35;100713.91;;;24.95;43.03
74895;BME280;63447;49.446;8.666;2022-10-31T10:58:09;100715.34;;;24.39;45.38
74895;BME280;63447;49.446;8.666;2022-10-31T11:00:43;100711.00;;;24.27;45.87
74895;BME280;63447;49.446;8.666;2022-10-31T11:03:13;100700.09;;;23.84;46.40
74895;BME280;63447;49.446;8.666;2022-10-31T11:08:26;100692.09;;;23.10;48.68
74895;BME280;63447;49.446;8.666;2022-10-31T11:11:03;100703.03;;;22.86;48.84
74895;BME280;63447;49.446;8.666;2022-10-31T11:13:30;100699.50;;;22.47;49.41
74895;BME280;63447;49.446;8.666;2022-10-31T11:16:00;100691.91;;;22.15;50.36
74895;BME280;63447;49.446;8.666;2022-10-31T11:18:30;100670.22;;;21.84;51.83
74895;BME280;63447;49.446;8.666;2022-10-31T11:21:01;100688.28;;;21.83;52.03
74895;BME280;63447;49.446;8.666;2022-10-31T11:23:31;100679.06;;;21.68;52.39
74895;BME280;63447;49.446;8.666;2022-10-31T11:26:03;100679.81;;;21.44;53.98
74895;BME280;63447;49.446;8.666;2022-10-31T11:28:30;100667.38;;;21.38;53.69
74895;BME280;63447;49.446;8.666;2022-10-31T11:31:04;100676.50;;;21.03;54.51
74895;BME280;63447;49.446;8.666;2022-10-31T11:33:44;100686.78;;;20.74;56.04
74895;BME280;63447;49.446;8.666;2022-10-31T11:36:46;100675.41;;;20.45;56.98
74895;BME280;63447;49.446;8.666;2022-10-31T11:39:24;100666.47;;;20.25;58.05
74895;BME280;63447;49.446;8.666;2022-10-31T11:41:59;100658.59;;;20.45;57.94
74895;BME280;63447;49.446;8.666;2022-10-31T11:44:27;100649.53;;;20.73;56.55
74895;BME280;63447;49.446;8.666;2022-10-31T11:46:56;100648.34;;;20.85;56.07
74895;BME280;63447;49.446;8.666;2022-10-31T11:49:36;100650.34;;;20.81;56.64
74895;BME280;63447;49.446;8.666;2022-10-31T11:52:08;100644.03;;;21.12;55.50
74895;BME280;63447;49.446;8.666;2022-10-31T11:54:47;100650.97;;;21.47;53.46
74895;BME280;63447;49.446;8.666;2022-10-31T11:57:30;100652.13;;;21.39;53.89
74895;BME280;63447;49.446;8.666;2022-10-31T12:00:01;100644.94;;;21.45;53.51
74895;BME280;63447;49.446;8.666;2022-10-31T12:02:29;100643.31;;;21.58;53.28
74895;BME280;63447;49.446;8.666;2022-10-31T12:07:26;100621.97;;;20.96;55.70
74895;BME280;63447;49.446;8.666;2022-10-31T12:09:54;100611.19;;;21.16;55.11
74895;BME280;63447;49.446;8.666;2022-10-31T12:24:35;100614.63;;;20.63;56.79
74895;BME280;63447;49.446;8.666;2022-10-31T12:40:47;100608.06;;;19.76;59.51
74895;BME280;63447;49.446;8.666;2022-10-31T12:45:53;100601.06;;;19.49;59.85
74895;BME280;63447;49.446;8.666;2022-10-31T12:50:56;100590.13;;;19.37;60.15
74895;BME280;63447;49.446;8.666;2022-10-31T12:53:40;100589.72;;;19.35;60.01
74895;BME280;63447;49.446;8.666;2022-10-31T12:56:35;100576.50;;;19.31;60.89
74895;BME280;63447;49.446;8.666;2022-10-31T12:59:13;100580.47;;;19.30;60.39
74895;BME280;63447;49.446;8.666;2022-10-31T13:01:49;100572.81;;;19.24;60.81
74895;BME280;63447;49.446;8.666;2022-10-31T13:04:24;100556.88;;;19.28;61.67
74895;BME280;63447;49.446;8.666;2022-10-31T13:07:05;100558.72;;;19.54;61.41
74895;BME280;63447;49.446;8.666;2022-10-31T13:09:39;100550.06;;;19.70;61.68
74895;BME280;63447;49.446;8.666;2022-10-31T13:12:10;100547.41;;;19.94;59.75
74895;BME280;63447;49.446;8.666;2022-10-31T13:14:44;100535.06;;;20.06;58.96
74895;BME280;63447;49.446;8.666;2022-10-31T13:17:28;100527.09;;;20.12;59.59
74895;BME280;63447;49.446;8.666;2022-10-31T13:20:08;100513.44;;;19.99;60.44
74895;BME280;63447;49.446;8.666;2022-10-31T13:22:42;100486.06;;;19.75;60.33
74895;BME280;63447;49.446;8.666;2022-10-31T13:27:44;100481.91;;;19.48;62.09
74895;BME280;63447;49.446;8.666;2022-10-31T13:32:41;100458.25;;;19.38;61.83
74895;BME280;63447;49.446;8.666;2022-10-31T13:35:25;100466.69;;;19.45;62.03
74895;BME280;63447;49.446;8.666;2022-10-31T13:40:33;100463.41;;;19.36;61.87
74895;BME280;63447;49.446;8.666;2022-10-31T13:43:21;100486.31;;;19.49;61.25
74895;BME280;63447;49.446;8.666;2022-10-31T13:45:53;100488.00;;;21.89;55.56
74895;BME280;63447;49.446;8.666;2022-10-31T13:48:29;100486.59;;;24.29;48.77
74895;BME280;63447;49.446;8.666;2022-10-31T13:50:59;100471.75;;;26.35;43.01
74895;BME280;63447;49.446;8.666;2022-10-31T13:56:27;100479.09;;;29.38;36.02
74895;BME280;63447;49.446;8.666;2022-10-31T14:01:22;100489.59;;;28.11;37.75
74895;BME280;63447;49.446;8.666;2022-10-31T14:03:58;100503.56;;;27.44;39.69
74895;BME280;63447;49.446;8.666;2022-10-31T14:06:38;100492.94;;;27.93;38.39
74895;BME280;63447;49.446;8.666;2022-10-31T14:09:17;100492.22;;;29.11;36.38
74895;BME280;63447;49.446;8.666;2022-10-31T14:11:46;100498.97;;;28.24;37.18
74895;BME280;63447;49.446;8.666;2022-10-31T14:14:15;100496.28;;;28.04;37.73
74895;BME280;63447;49.446;8.666;2022-10-31T14:16:44;100493.13;;;29.33;35.98
74895;BME280;63447;49.446;8.666;2022-10-31T14:19:16;100499.88;;;29.95;34.37
74895;BME280;63447;49.446;8.666;2022-10-31T14:21:44;100495.38;;;29.85;34.20
74895;BME280;63447;49.446;8.666;2022-10-31T14:26:59;100495.63;;;30.13;34.11
74895;BME280;63447;49.446;8.666;2022-10-31T14:29:30;100493.69;;;29.75;34.32
74895;BME280;63447;49.446;8.666;2022-10-31T14:32:31;100502.09;;;28.68;36.73
74895;BME280;63447;49.446;8.666;2022-10-31T14:37:56;100505.41;;;26.50;41.42
74895;BME280;63447;49.446;8.666;2022-10-31T14:43:29;100481.78;;;23.51;49.10
74895;BME280;63447;49.446;8.666;2022-10-31T14:46:29;100485.09;;;22.94;51.01
74895;BME280;63447;49.446;8.666;2022-10-31T14:51:46;100473.56;;;21.91;54.16
74895;BME280;63447;49.446;8.666;2022-10-31T14:54:22;100470.06;;;21.48;56.63
74895;BME280;63447;49.446;8.666;2022-10-31T14:56:53;100454.06;;;21.02;57.45
74895;BME280;63447;49.446;8.666;2022-10-31T14:59:22;100461.66;;;20.98;57.82
74895;BME280;63447;49.446;8.666;2022-10-31T15:01:58;100437.56;;;20.47;58.97
74895;BME280;63447;49.446;8.666;2022-10-31T15:04:29;100461.09;;;20.28;60.15
74895;BME280;63447;49.446;8.666;2022-10-31T15:07:18;100468.22;;;20.05;61.59